Flight Track Log - Related Links

Times and Time Zones

All times are in EDT time to prevent confusion due to time zone crossing. See the SKW5631 flight status page for this flight to view local times or setup timezone preferences in your user account.


Time Position Orientation Groundspeed Altitude Reporting Facility
EDT Latitude Longitude Course Direction KTS MPH feet Rate Location/Type
Tue 09:31:24 PM 37.6292 -122.3914 133° Southeast 143 165 33,000  Level Oakland Center
Tue 09:32:25 PM 37.6517 -122.4444 298° West 199 229 3,700 -13,050 Descending Oakland Center
Tue 09:33:24 PM 37.6675 -122.5267 284° West 244 281 6,900 3,100 Climbing Oakland Center
Tue 09:34:00 PM 37.3283 -122.2005 136° Southeast  Level FlightAware Approximate
Tue 09:34:25 PM 37.6036 -122.5689 208° Southwest 295 339 9,900  Level Oakland Center
Tue 09:35:00 PM 37.2362 -122.0661 135° Southeast  Level FlightAware Approximate
Tue 09:35:28 PM 37.5181 -122.4831 141° Southeast 335 386 12,600  Level Oakland Center
Tue 09:36:00 PM 37.1373 -121.9386 133° Southeast  Level FlightAware Approximate
Tue 09:36:27 PM 37.4408 -122.3981 139° Southeast 369 425 14,800  Level Oakland Center
Tue 09:37:30 PM 37.3603 -122.3078 138° Southeast 386 444 16,600 1,742 Climbing Oakland Center
Tue 09:38:31 PM 37.2742 -122.2131 139° Southeast 408 470 18,400 1,785 Climbing Oakland Center
Tue 09:39:31 PM 37.1872 -122.1164 138° Southeast 415 478 20,200 1,550 Climbing Oakland Center
Tue 09:40:31 PM 37.0969 -122.0158 138° Southeast 433 498 21,500 1,240 Climbing Oakland Center
Tue 09:41:32 PM 37.0044 -121.9100 138° Southeast 447 514 22,700 1,268 Climbing Oakland Center
Tue 09:42:34 PM 36.9264 -121.7869 128° Southeast 453 521 24,100 1,296 Climbing Oakland Center
Tue 09:43:37 PM 36.8461 -121.6686 130° Southeast 451 519 25,400 1,289 Climbing Oakland Center
Tue 09:44:35 PM 36.7553 -121.5264 129° Southeast 454 522 26,700 1,131 Climbing Oakland Center
Tue 09:45:39 PM 36.6725 -121.4022 130° Southeast 462 532 27,700 960 Climbing Oakland Center
Tue 09:46:40 PM 36.5917 -121.2764 129° Southeast 465 535 28,700 984 Climbing Oakland Center
Tue 09:47:41 PM 36.4889 -121.1706 140° Southeast 487 560 29,700 984 Climbing Oakland Center
Tue 09:48:42 PM 36.3819 -121.0686 142° Southeast 486 559 30,700 639 Climbing Oakland Center
Tue 09:49:43 PM 36.2758 -120.9678 143° Southeast 483 556 31,000 148 Climbing Oakland Center
Tue 09:50:44 PM 36.1653 -120.8631 143° Southeast 495 570 31,000  Level Oakland Center
Tue 09:51:45 PM 36.0564 -120.7600 143° Southeast 496 571 31,000  Level Oakland Center
Tue 09:52:45 PM 35.9489 -120.6561 142° Southeast 495 570 31,000  Level Oakland Center
Tue 09:53:47 PM 35.8417 -120.5564 143° Southeast 486 559 31,000  Level Oakland Center
Tue 09:54:49 PM 35.7150 -120.4381 143° Southeast 480 552 31,000  Level Oakland Center
Tue 09:55:50 PM 35.6086 -120.3403 143° Southeast 477 549 31,000 -51 Level Oakland Center
Tue 09:56:46 PM 35.5206 -120.2614 144° Southeast 474 545 30,900 -308 Descending Los Angeles Center
Tue 09:57:47 PM 35.4156 -120.1633 143° Southeast 474 545 30,400 -1,073 Descending Los Angeles Center
Tue 09:58:49 PM 35.3025 -120.0578 143° Southeast 490 564 28,700 -1,790 Descending Los Angeles Center
Tue 09:59:51 PM 35.1692 -119.9361 143° Southeast 494 568 26,700 -1,659 Descending Los Angeles Center
Tue 10:00:52 PM 35.0661 -119.8294 140° Southeast 487 560 25,300 -1,366 Descending Los Angeles Center
Tue 10:01:54 PM 34.9825 -119.7150 132° Southeast 455 524 23,900 -1,561 Descending Los Angeles Center
Tue 10:02:55 PM 34.9078 -119.6142 132° Southeast 406 467 22,100 -1,707 Descending Los Angeles Center
Tue 10:03:57 PM 34.8339 -119.5175 133° Southeast 393 452 20,400 -1,742 Descending Los Angeles Center
Tue 10:04:59 PM 34.7622 -119.4225 133° Southeast 385 443 18,500 -1,805 Descending Los Angeles Center
Tue 10:06:00 PM 34.6928 -119.3272 132° Southeast 381 438 16,700 -1,756 Descending Los Angeles Center
Tue 10:07:02 PM 34.6236 -119.2358 133° Southeast 375 432 14,900 -1,707 Descending Los Angeles Center
Tue 10:08:03 PM 34.5669 -119.1303 123° Southeast 361 415 13,200 -1,756 Descending Los Angeles Center
Tue 10:09:05 PM 34.5083 -119.0142 121° Southeast 362 417 11,300 -1,561 Descending Los Angeles Center
Tue 10:10:06 PM 34.4247 -118.9506 148° Southeast 321 369 10,000 -1,561 Descending Los Angeles Center
Tue 10:11:08 PM 34.3608 -118.8850 140° Southeast 298 343 8,100 -1,854 Descending Los Angeles Center
Tue 10:12:09 PM 34.3047 -118.8150 134° Southeast 293 337 6,200 -1,463 Descending Los Angeles Center
Tue 10:13:11 PM 34.2550 -118.7478 132° Southeast 267 307 5,100 -581 Descending Los Angeles Center
Tue 10:14:13 PM 34.2025 -118.6778 132° Southeast 274 315 5,000 -98 Descending Los Angeles Center
Tue 10:15:14 PM 34.1564 -118.6064 128° Southeast 274 315 4,900 -488 Descending Los Angeles Center
Tue 10:16:16 PM 34.1467 -118.5283 99° East 252 290 4,000 -927 Descending Los Angeles Center
Tue 10:17:17 PM 34.1425 -118.4497 94° East 238 274 3,000 -878 Descending Los Angeles Center
Tue 10:18:19 PM 34.1492 -118.3778 84° East 197 227 2,200 -919 Descending Los Angeles Center
Tue 10:19:08 PM 34.1667 -118.3500 53° Northeast 147 169 1,300 -1,102 Descending Southern California TRACON

Login

Don't have an account? Register now (free) for customized features, flight alerts, and more!